createdAt,value
2022-10-25T00:00:47.777Z,98963.72
2022-10-25T00:03:15.994Z,98920.72
2022-10-25T00:05:44.220Z,98950.63
2022-10-25T00:08:12.350Z,98934.28
2022-10-25T00:10:40.531Z,98911.47
2022-10-25T00:13:10.066Z,98962.72
2022-10-25T00:15:38.369Z,98973.41
2022-10-25T00:18:06.962Z,98972.38
2022-10-25T00:20:37.576Z,98984.63
2022-10-25T00:23:05.698Z,98936.44
2022-10-25T00:25:33.930Z,98964.88
2022-10-25T00:28:02.052Z,98958.66
2022-10-25T00:30:31.731Z,98923.34
2022-10-25T00:33:00.248Z,98934.06
2022-10-25T00:35:28.628Z,98950.75
2022-10-25T00:37:56.838Z,99009.84
2022-10-25T00:40:24.992Z,98986.13
2022-10-25T00:42:53.091Z,99011.78
2022-10-25T00:45:23.691Z,99009.13
2022-10-25T00:47:58.144Z,98973.44
2022-10-25T00:50:36.975Z,98964.78
2022-10-25T00:53:10.918Z,99002.13
2022-10-25T00:55:42.459Z,98982.91
2022-10-25T00:58:14.928Z,98959.34
2022-10-25T01:00:45.443Z,98983.28
2022-10-25T01:03:17.791Z,98961.84
2022-10-25T01:05:48.104Z,98949.53
2022-10-25T01:08:17.108Z,98958.25
2022-10-25T01:10:45.188Z,99000.72
2022-10-25T01:13:13.259Z,99014.81
2022-10-25T01:15:52.885Z,99012.16
2022-10-25T01:18:32.195Z,98921.38
2022-10-25T01:21:25.466Z,98955.16
2022-10-25T01:24:13.478Z,98956.78
2022-10-25T01:27:05.280Z,98951.91
2022-10-25T01:30:06.357Z,98911.75
2022-10-25T01:32:50.023Z,99001.09
2022-10-25T01:35:27.866Z,98948.31
2022-10-25T01:38:08.651Z,98975.66
2022-10-25T01:40:46.829Z,98921.72
2022-10-25T01:43:24.239Z,99003.19
2022-10-25T01:45:59.169Z,98964.78
2022-10-25T01:48:33.765Z,98906.91
2022-10-25T01:51:10.286Z,98944.16
2022-10-25T01:53:46.117Z,98968.09
2022-10-25T01:56:20.834Z,98988.78
2022-10-25T01:59:01.715Z,98950.41
2022-10-25T02:01:41.035Z,98971.94
2022-10-25T02:04:20.311Z,98956.81
2022-10-25T02:06:56.765Z,98963.31
2022-10-25T02:09:33.113Z,98987.63
2022-10-25T02:12:03.385Z,98996.56
2022-10-25T02:14:36.429Z,98991.78
2022-10-25T02:17:10.777Z,98925.25
2022-10-25T02:19:45.111Z,98909.75
2022-10-25T02:22:14.822Z,98998.34
2022-10-25T02:24:47.043Z,98932.66
2022-10-25T02:27:15.865Z,98935.78
2022-10-25T02:29:47.028Z,98957.66
2022-10-25T02:32:15.332Z,98924.59
2022-10-25T02:34:48.709Z,98948.75
2022-10-25T02:37:16.815Z,98954.53
2022-10-25T02:39:46.427Z,98907.84
2022-10-25T02:42:14.665Z,98917.06
2022-10-25T02:44:42.774Z,98917.91
2022-10-25T02:47:10.896Z,98942.63
2022-10-25T02:49:39.079Z,98982.09
2022-10-25T02:52:08.573Z,98924.19
2022-10-25T02:54:36.722Z,98970.25
2022-10-25T02:57:04.841Z,98915.56
2022-10-25T02:59:33.060Z,98903.50
2022-10-25T03:02:01.214Z,98903.16
2022-10-25T03:04:29.309Z,98884.16
2022-10-25T03:06:58.075Z,98908.09
2022-10-25T03:09:27.704Z,98915.16
2022-10-25T03:11:55.901Z,98926.03
2022-10-25T03:14:24.110Z,98924.84
2022-10-25T03:16:52.228Z,98936.66
2022-10-25T03:19:20.328Z,98975.13
2022-10-25T03:21:48.476Z,98964.50
2022-10-25T03:24:16.739Z,98966.47
2022-10-25T03:26:46.276Z,98914.84
2022-10-25T03:29:14.360Z,98924.03
2022-10-25T03:31:42.484Z,98890.16
2022-10-25T03:34:10.558Z,98941.56
2022-10-25T03:36:38.706Z,98958.53
2022-10-25T03:39:06.834Z,98942.94
2022-10-25T03:41:34.934Z,98896.59
2022-10-25T03:44:04.641Z,98926.13
2022-10-25T03:46:32.841Z,98912.22
2022-10-25T03:49:01.020Z,98967.00
2022-10-25T03:51:29.291Z,98974.38
2022-10-25T03:53:57.743Z,99002.00
2022-10-25T03:56:25.940Z,99006.69
2022-10-25T03:58:54.462Z,98953.72
2022-10-25T04:01:24.290Z,98976.69
2022-10-25T04:03:52.727Z,98969.41
2022-10-25T04:06:20.845Z,98947.53
2022-10-25T04:08:48.923Z,98971.59
2022-10-25T04:11:17.152Z,98967.28
2022-10-25T04:13:45.430Z,98964.81
2022-10-25T04:16:17.080Z,98993.16
2022-10-25T04:18:48.521Z,98989.16
2022-10-25T04:21:16.632Z,98996.06
2022-10-25T04:23:44.655Z,98990.25
2022-10-25T04:26:14.663Z,98997.88
2022-10-25T04:28:42.766Z,98974.16
2022-10-25T04:31:11.065Z,98980.69
2022-10-25T04:33:39.201Z,98990.63
2022-10-25T04:36:09.416Z,98996.03
2022-10-25T04:38:37.949Z,99000.16
2022-10-25T04:41:06.322Z,98984.75
2022-10-25T04:43:34.469Z,98917.88
2022-10-25T04:46:03.167Z,98943.69
2022-10-25T04:48:31.432Z,98917.88
2022-10-25T04:51:00.358Z,98943.03
2022-10-25T04:53:29.890Z,98990.66
2022-10-25T04:55:58.313Z,98997.44
2022-10-25T04:58:30.406Z,98998.63
2022-10-25T05:01:02.567Z,98945.97
2022-10-25T05:03:31.155Z,98931.25
2022-10-25T05:06:07.743Z,98971.09
2022-10-25T05:08:37.771Z,98924.72
2022-10-25T05:11:06.093Z,98961.59
2022-10-25T05:13:35.342Z,99001.13
2022-10-25T05:16:04.114Z,98962.72
2022-10-25T05:18:32.979Z,98947.34
2022-10-25T05:21:04.249Z,98945.78
2022-10-25T05:23:34.127Z,99005.22
2022-10-25T05:26:05.941Z,99011.06
2022-10-25T05:28:35.022Z,99001.53
2022-10-25T05:31:05.273Z,99013.59
2022-10-25T05:33:33.955Z,99012.56
2022-10-25T05:36:04.417Z,99022.63
2022-10-25T05:38:34.393Z,99020.84
2022-10-25T05:41:08.286Z,99021.72
2022-10-25T05:43:36.592Z,99004.38
2022-10-25T05:46:07.014Z,99017.03
2022-10-25T05:48:36.406Z,99020.50
2022-10-25T05:51:33.230Z,99031.13
2022-10-25T05:54:04.082Z,99030.72
2022-10-25T05:56:35.369Z,99038.25
2022-10-25T05:59:07.703Z,99008.97
2022-10-25T06:01:36.826Z,99010.81
2022-10-25T06:04:05.357Z,99030.84
2022-10-25T06:06:33.740Z,99011.03
2022-10-25T06:09:03.019Z,99019.94
2022-10-25T06:11:31.567Z,99034.34
2022-10-25T06:14:00.948Z,99034.34
2022-10-25T06:16:29.095Z,99025.38
2022-10-25T06:18:57.449Z,99012.81
2022-10-25T06:21:27.795Z,99034.56
2022-10-25T06:23:57.190Z,99023.34
2022-10-25T06:26:26.958Z,99036.88
2022-10-25T06:28:56.298Z,98991.34
2022-10-25T06:31:26.153Z,99029.84
2022-10-25T06:33:54.291Z,99036.00
2022-10-25T06:36:24.165Z,99034.56
2022-10-25T06:38:52.710Z,99026.00
2022-10-25T06:41:22.260Z,99040.56
2022-10-25T06:43:51.369Z,99043.41
2022-10-25T06:46:23.163Z,99051.66
2022-10-25T06:48:54.294Z,99029.88
2022-10-25T06:51:23.321Z,99030.84
2022-10-25T06:53:55.603Z,99041.75
2022-10-25T06:56:24.424Z,99048.47
2022-10-25T06:58:52.643Z,99045.41
2022-10-25T07:01:22.629Z,99058.75
2022-10-25T07:03:53.943Z,99055.47
2022-10-25T07:06:24.370Z,99060.19
2022-10-25T07:08:55.225Z,99057.88
2022-10-25T07:11:24.337Z,99051.97
2022-10-25T07:13:52.492Z,99068.47
2022-10-25T07:16:22.191Z,99064.34
2022-10-25T07:18:50.324Z,99064.47
2022-10-25T07:21:21.691Z,99067.97
2022-10-25T07:23:51.117Z,99068.09
2022-10-25T07:26:21.131Z,99070.41
2022-10-25T07:28:51.162Z,99079.63
2022-10-25T07:31:21.562Z,99075.34
2022-10-25T07:33:49.830Z,99054.16
2022-10-25T07:36:19.739Z,99066.31
2022-10-25T07:38:47.811Z,99079.34
2022-10-25T07:41:16.340Z,99071.00
2022-10-25T07:43:44.495Z,98993.16
2022-10-25T07:46:12.797Z,99012.13
2022-10-25T07:48:40.948Z,99023.16
2022-10-25T07:51:12.190Z,98979.34
2022-10-25T07:53:42.175Z,98990.50
2022-10-25T07:56:16.235Z,99020.28
2022-10-25T07:58:47.432Z,99007.28
2022-10-25T08:01:20.796Z,99015.16
2022-10-25T08:03:49.013Z,99052.66
2022-10-25T08:06:17.183Z,99055.19
2022-10-25T08:08:46.851Z,99018.50
2022-10-25T08:11:15.066Z,99071.84
2022-10-25T08:13:43.144Z,99039.88
2022-10-25T08:16:11.350Z,99037.16
2022-10-25T08:18:39.387Z,99002.19
2022-10-25T08:21:07.587Z,99057.00
2022-10-25T08:23:35.760Z,98997.69
2022-10-25T08:26:05.286Z,99053.06
2022-10-25T08:29:06.045Z,98971.00
2022-10-25T08:52:22.837Z,98979.16
2022-10-25T08:55:05.527Z,99069.19
2022-10-25T08:57:39.357Z,99041.44
2022-10-25T09:00:13.692Z,99059.38
2022-10-25T09:02:47.165Z,99069.31
2022-10-25T09:05:25.966Z,99072.28
2022-10-25T09:08:16.711Z,99065.81
2022-10-25T09:10:56.781Z,99065.16
2022-10-25T09:13:38.335Z,99066.16
2022-10-25T09:16:16.710Z,99076.81
2022-10-25T09:18:49.458Z,99061.06
2022-10-25T09:21:23.073Z,99048.81
2022-10-25T09:23:58.429Z,99068.13
2022-10-25T09:26:40.248Z,99080.00
2022-10-25T09:29:24.632Z,99057.47
2022-10-25T09:31:57.333Z,99070.59
2022-10-25T09:34:29.125Z,99059.41
2022-10-25T09:37:19.734Z,98985.03
2022-10-25T09:39:52.625Z,99022.38
2022-10-25T09:45:38.600Z,98977.28
2022-10-25T09:48:22.106Z,99031.44
2022-10-25T09:50:54.968Z,99043.34
2022-10-25T09:53:24.297Z,98984.31
2022-10-25T09:55:54.848Z,99010.53
2022-10-25T09:58:25.311Z,99043.31
2022-10-25T10:00:57.018Z,98981.22
2022-10-25T10:09:34.217Z,99034.19
2022-10-25T10:15:53.685Z,98972.03
2022-10-25T10:19:15.463Z,98963.34
2022-10-25T10:21:45.564Z,99009.63
2022-10-25T10:24:25.906Z,99014.50
2022-10-25T10:26:57.627Z,98992.66
2022-10-25T10:33:16.749Z,99004.03
2022-10-25T10:35:58.159Z,99033.97
2022-10-25T10:54:32.082Z,99045.53
2022-10-25T10:59:37.663Z,98953.50
2022-10-25T11:03:04.386Z,99004.66
2022-10-25T11:05:36.287Z,98986.31
2022-10-25T11:08:18.372Z,98993.25
2022-10-25T12:11:56.295Z,98996.00
2022-10-25T12:48:34.011Z,98971.88
2022-10-25T12:51:42.496Z,98969.03
2022-10-25T12:55:02.631Z,98900.84
2022-10-25T13:46:15.270Z,98928.47
2022-10-25T13:48:44.826Z,98888.78
2022-10-25T13:51:16.822Z,98913.25
2022-10-25T13:53:48.370Z,98929.06
2022-10-25T13:56:19.139Z,98888.97
2022-10-25T13:58:49.447Z,98923.53
2022-10-25T14:01:54.712Z,98915.38
2022-10-25T14:04:35.656Z,98928.81
2022-10-25T14:07:40.844Z,98919.63
2022-10-25T14:10:16.620Z,98881.88
2022-10-25T14:12:49.755Z,98904.50
2022-10-25T14:15:27.315Z,98860.53
2022-10-25T14:17:55.646Z,98907.13
2022-10-25T14:20:28.656Z,98907.94
2022-10-25T14:23:00.453Z,98901.13
2022-10-25T14:25:35.169Z,98850.06
2022-10-25T14:28:13.294Z,98836.59
2022-10-25T14:30:44.307Z,98874.69
2022-10-25T14:33:24.008Z,98894.03
2022-10-25T14:35:55.143Z,98828.28
2022-10-25T14:38:24.963Z,98894.06
2022-10-25T14:40:54.196Z,98891.75
2022-10-25T14:43:26.039Z,98894.97
2022-10-25T14:45:59.247Z,98887.56
2022-10-25T14:48:27.568Z,98885.69
2022-10-25T14:50:59.489Z,98895.63
2022-10-25T14:53:31.025Z,98860.16
2022-10-25T14:56:03.365Z,98822.97
2022-10-25T14:58:41.758Z,98891.28
2022-10-25T15:01:14.379Z,98857.63
2022-10-25T15:03:45.986Z,98846.69
2022-10-25T15:06:17.316Z,98829.34
2022-10-25T15:08:50.792Z,98857.97
2022-10-25T15:11:21.609Z,98837.66
2022-10-25T15:13:51.637Z,98877.03
2022-10-25T15:16:37.636Z,98887.94
2022-10-25T15:19:08.506Z,98865.16
2022-10-25T15:21:42.910Z,98877.09
2022-10-25T15:24:16.933Z,98836.50
2022-10-25T15:27:03.048Z,98886.88
2022-10-25T15:29:44.542Z,98859.38
2022-10-25T15:32:15.208Z,98809.78
2022-10-25T15:34:44.501Z,98822.16
2022-10-25T15:37:15.980Z,98872.41
2022-10-25T15:39:44.452Z,98876.50
2022-10-25T15:42:14.535Z,98857.41
2022-10-25T15:44:44.168Z,98862.72
2022-10-25T15:47:23.566Z,98860.34
2022-10-25T15:49:54.302Z,98858.84
2022-10-25T15:52:26.183Z,98846.34
2022-10-25T15:54:54.318Z,98860.91
2022-10-25T15:57:22.342Z,98842.09
2022-10-25T15:59:50.392Z,98819.03
2022-10-25T16:02:21.452Z,98820.44
2022-10-25T16:04:50.131Z,98858.75
2022-10-25T16:07:18.130Z,98843.97
2022-10-25T16:09:47.668Z,98847.28
2022-10-25T16:12:22.324Z,98797.84
2022-10-25T16:14:52.953Z,98838.91
2022-10-25T16:17:20.960Z,98839.88
2022-10-25T16:19:48.985Z,98827.63
2022-10-25T16:22:16.990Z,98823.25
2022-10-25T16:24:45.012Z,98812.84
2022-10-25T16:27:14.810Z,98800.47
2022-10-25T16:29:42.812Z,98815.66
2022-10-25T16:32:10.945Z,98800.97
2022-10-25T16:34:42.488Z,98823.59
2022-10-25T16:37:11.974Z,98818.28
2022-10-25T16:39:40.171Z,98811.00
2022-10-25T16:42:31.514Z,98819.03
2022-10-25T16:45:00.853Z,98820.88
2022-10-25T16:47:29.614Z,98824.63
2022-10-25T16:49:57.672Z,98819.97
2022-10-25T16:52:25.671Z,98820.66
2022-10-25T16:54:53.676Z,98824.34
2022-10-25T16:57:21.642Z,98811.31
2022-10-25T16:59:51.431Z,98830.03
2022-10-25T17:02:21.578Z,98825.38
2022-10-25T17:04:50.344Z,98835.41
2022-10-25T17:07:18.667Z,98831.47
2022-10-25T17:09:47.093Z,98816.00
2022-10-25T17:12:15.129Z,98818.38
2022-10-25T17:14:43.208Z,98820.63
2022-10-25T17:17:12.620Z,98829.66
2022-10-25T17:19:40.684Z,98830.78
2022-10-25T17:22:08.940Z,98839.75
2022-10-25T17:24:37.754Z,98830.63
2022-10-25T17:27:06.563Z,98835.97
2022-10-25T17:29:34.778Z,98803.47
2022-10-25T17:32:02.770Z,98831.19
2022-10-25T17:34:32.559Z,98843.72
2022-10-25T17:37:02.284Z,98841.16
2022-10-25T17:39:30.565Z,98840.56
2022-10-25T17:41:58.570Z,98836.66
2022-10-25T17:44:26.653Z,98838.91
2022-10-25T17:46:56.338Z,98843.00
2022-10-25T17:49:26.443Z,98842.16
2022-10-25T17:51:55.830Z,98845.53
2022-10-25T17:54:23.830Z,98819.38
2022-10-25T17:56:55.842Z,98843.88
2022-10-25T17:59:23.800Z,98786.31
2022-10-25T18:01:51.902Z,98826.69
2022-10-25T18:04:19.996Z,98838.53
2022-10-25T18:06:48.075Z,98825.56
2022-10-25T18:09:17.918Z,98790.69
2022-10-25T18:11:46.394Z,98813.31
2022-10-25T18:14:14.498Z,98819.53
2022-10-25T18:16:42.689Z,98815.56
2022-10-25T18:19:14.459Z,98810.94
2022-10-25T18:21:42.797Z,98802.66
2022-10-25T18:24:14.186Z,98801.94
2022-10-25T18:26:43.624Z,98751.16
2022-10-25T18:29:11.661Z,98805.72
2022-10-25T18:31:40.182Z,98730.47
2022-10-25T18:34:08.318Z,98773.81
2022-10-25T18:36:36.322Z,98785.59
2022-10-25T18:39:05.171Z,98775.91
2022-10-25T18:41:35.167Z,98792.50
2022-10-25T18:44:04.896Z,98788.41
2022-10-25T18:46:33.029Z,98774.22
2022-10-25T18:49:01.171Z,98782.91
2022-10-25T18:51:31.986Z,98774.78
2022-10-25T18:54:01.344Z,98769.56
2022-10-25T18:56:30.747Z,98769.00
2022-10-25T18:59:00.133Z,98767.44
2022-10-25T19:01:33.430Z,98777.84
2022-10-25T19:04:02.219Z,98776.00
2022-10-25T19:06:30.822Z,98781.94
2022-10-25T19:08:58.892Z,98784.19
2022-10-25T19:11:26.883Z,98774.34
2022-10-25T19:13:55.530Z,98786.56
2022-10-25T19:16:24.280Z,98778.56
2022-10-25T19:18:53.818Z,98780.38
2022-10-25T19:21:22.045Z,98769.97
2022-10-25T19:23:50.061Z,98755.94
2022-10-25T19:26:20.472Z,98757.47
2022-10-25T19:28:49.020Z,98750.41
2022-10-25T19:31:18.591Z,98763.25
2022-10-25T19:33:47.364Z,98769.16
2022-10-25T19:36:18.015Z,98762.13
2022-10-25T19:38:48.433Z,98733.72
2022-10-25T19:41:19.081Z,98749.88
2022-10-25T19:43:48.990Z,98744.53
2022-10-25T19:46:20.806Z,98748.34
2022-10-25T19:48:51.868Z,98741.75
2022-10-25T19:51:32.071Z,98731.63
2022-10-25T19:54:00.371Z,98732.75
2022-10-25T19:56:28.378Z,98733.31
2022-10-25T19:58:56.786Z,98708.13
2022-10-25T20:01:27.402Z,98717.00
2022-10-25T20:03:57.633Z,98729.53
2022-10-25T20:06:31.916Z,98734.69
2022-10-25T20:09:02.406Z,98743.41
2022-10-25T20:11:31.603Z,98745.91
2022-10-25T20:14:04.789Z,98740.28
2022-10-25T20:16:35.305Z,98738.63
2022-10-25T20:19:06.211Z,98743.97
2022-10-25T20:21:37.564Z,98698.41
2022-10-25T20:24:08.045Z,98735.94
2022-10-25T20:26:38.185Z,98742.94
2022-10-25T20:29:08.354Z,98690.22
2022-10-25T20:31:36.369Z,98739.81
2022-10-25T20:34:05.339Z,98740.69
2022-10-25T20:36:33.468Z,98741.78
2022-10-25T20:39:03.023Z,98744.75
2022-10-25T20:41:32.194Z,98741.94
2022-10-25T20:44:03.040Z,98745.44
2022-10-25T20:46:31.265Z,98737.84
2022-10-25T20:49:00.079Z,98748.81
2022-10-25T20:51:28.759Z,98704.38
2022-10-25T20:53:57.884Z,98740.94
2022-10-25T20:56:27.304Z,98725.72
2022-10-25T20:58:55.338Z,98718.56
2022-10-25T21:01:23.430Z,98738.03
2022-10-25T21:03:51.830Z,98741.53
2022-10-25T21:06:19.848Z,98736.75
2022-10-25T21:08:47.849Z,98738.16
2022-10-25T21:11:15.826Z,98734.34
2022-10-25T21:13:45.362Z,98727.41
2022-10-25T21:16:15.211Z,98727.53
2022-10-25T21:18:43.813Z,98713.31
2022-10-25T21:21:17.960Z,98723.34
2022-10-25T21:23:46.403Z,98731.97
2022-10-25T21:26:14.595Z,98718.63
2022-10-25T21:28:44.305Z,98728.78
2022-10-25T21:31:14.319Z,98721.50
2022-10-25T21:33:44.044Z,98720.88
2022-10-25T21:36:15.842Z,98729.59
2022-10-25T21:38:44.317Z,98723.13
2022-10-25T21:41:14.286Z,98725.50
2022-10-25T21:43:45.935Z,98731.28
2022-10-25T21:46:14.696Z,98692.16
2022-10-25T21:48:43.934Z,98725.81
2022-10-25T21:51:12.062Z,98733.53
2022-10-25T21:53:40.193Z,98722.88
2022-10-25T21:56:11.605Z,98723.69
2022-10-25T21:58:39.673Z,98723.16
2022-10-25T22:01:14.003Z,98718.50
2022-10-25T22:03:42.239Z,98716.16
2022-10-25T22:06:11.825Z,98721.22
2022-10-25T22:08:40.098Z,98719.59
2022-10-25T22:11:12.004Z,98708.63
2022-10-25T22:13:40.002Z,98697.00
2022-10-25T22:16:09.650Z,98679.56
2022-10-25T22:18:39.018Z,98697.38
2022-10-25T22:21:09.302Z,98702.13
2022-10-25T22:23:37.390Z,98702.94
2022-10-25T22:26:07.736Z,98698.31
2022-10-25T22:28:39.798Z,98695.88
2022-10-25T22:31:11.803Z,98695.78
2022-10-25T22:33:42.085Z,98686.53
2022-10-25T22:36:12.650Z,98706.78
2022-10-25T22:38:41.218Z,98706.38
2022-10-25T22:41:11.949Z,98688.75
2022-10-25T22:43:40.858Z,98685.28
2022-10-25T22:46:11.611Z,98711.31
2022-10-25T22:48:42.572Z,98722.41
2022-10-25T22:51:11.727Z,98719.44
2022-10-25T22:53:40.717Z,98729.97
2022-10-25T22:56:11.753Z,98735.06
2022-10-25T22:58:41.552Z,98718.59
2022-10-25T23:01:11.287Z,98698.50
2022-10-25T23:03:43.197Z,98712.03
2022-10-25T23:06:13.396Z,98722.81
2022-10-25T23:08:41.562Z,98724.22
2022-10-25T23:11:13.501Z,98727.78
2022-10-25T23:13:42.128Z,98718.53
2022-10-25T23:16:10.726Z,98706.59
2022-10-25T23:18:40.949Z,98715.41
2022-10-25T23:21:10.657Z,98720.63
2022-10-25T23:23:39.878Z,98725.25
2022-10-25T23:26:09.039Z,98717.28
2022-10-25T23:28:37.063Z,98712.66
2022-10-25T23:31:06.286Z,98705.19
2022-10-25T23:33:34.807Z,98696.78
2022-10-25T23:36:05.485Z,98710.69
2022-10-25T23:38:33.552Z,98650.00
2022-10-25T23:41:01.584Z,98664.03
2022-10-25T23:43:30.010Z,98685.56
2022-10-25T23:45:58.211Z,98671.41
2022-10-25T23:48:26.526Z,98670.69
2022-10-25T23:50:58.646Z,98687.13
2022-10-25T23:53:28.488Z,98695.31
2022-10-25T23:55:57.241Z,98695.72
2022-10-25T23:58:25.267Z,98703.72
